createdAt,value
2018-10-12T00:00:19.657Z,995.71
2018-10-12T00:01:19.650Z,995.72
2018-10-12T00:02:19.651Z,995.77
2018-10-12T00:03:19.631Z,995.74
2018-10-12T00:04:19.657Z,995.79
2018-10-12T00:05:19.602Z,995.78
2018-10-12T00:06:19.618Z,995.85
2018-10-12T00:07:19.583Z,995.85
2018-10-12T00:08:19.584Z,995.90
2018-10-12T00:09:19.562Z,995.93
2018-10-12T00:10:19.585Z,995.89
2018-10-12T00:11:19.539Z,995.85
2018-10-12T00:12:19.535Z,995.88
2018-10-12T00:13:19.515Z,995.82
2018-10-12T00:14:19.521Z,995.85
2018-10-12T00:15:19.497Z,995.79
2018-10-12T00:16:19.539Z,995.82
2018-10-12T00:17:19.470Z,995.85
2018-10-12T00:18:19.461Z,995.82
2018-10-12T00:19:19.452Z,995.86
2018-10-12T00:20:19.440Z,995.82
2018-10-12T00:21:19.424Z,995.83
2018-10-12T00:22:19.468Z,995.83
2018-10-12T00:23:19.401Z,995.85
2018-10-12T00:24:19.395Z,995.86
2018-10-12T00:25:19.383Z,995.93
2018-10-12T00:26:19.385Z,995.95
2018-10-12T00:27:19.360Z,996.00
2018-10-12T00:28:19.423Z,995.99
2018-10-12T00:29:19.337Z,995.96
2018-10-12T00:30:19.329Z,995.95
2018-10-12T00:31:19.318Z,995.95
2018-10-12T00:32:19.323Z,995.93
2018-10-12T00:33:19.293Z,995.95
2018-10-12T00:34:19.328Z,995.93
2018-10-12T00:35:19.271Z,996.02
2018-10-12T00:36:19.265Z,996.00
2018-10-12T00:37:19.250Z,996.05
2018-10-12T00:38:19.249Z,996.03
2018-10-12T00:39:19.254Z,996.08
2018-10-12T00:40:19.256Z,996.13
2018-10-12T00:41:19.202Z,996.14
2018-10-12T00:42:19.194Z,996.19
2018-10-12T00:43:19.187Z,996.17
2018-10-12T00:44:19.187Z,996.32
2018-10-12T00:45:19.162Z,996.34
2018-10-12T00:46:19.191Z,996.37
2018-10-12T00:47:19.138Z,996.38
2018-10-12T00:48:19.137Z,996.35
2018-10-12T00:49:19.120Z,996.38
2018-10-12T00:50:19.114Z,996.39
2018-10-12T00:51:19.100Z,996.37
2018-10-12T00:52:19.117Z,996.40
2018-10-12T00:53:19.074Z,996.46
2018-10-12T00:54:19.059Z,996.48
2018-10-12T00:55:19.052Z,996.48
2018-10-12T00:56:19.054Z,996.51
2018-10-12T00:57:19.027Z,996.48
2018-10-12T00:58:19.051Z,996.50
2018-10-12T00:59:19.008Z,996.47
2018-10-12T01:00:18.991Z,996.49
2018-10-12T01:01:18.980Z,996.49
2018-10-12T01:02:18.979Z,996.47
2018-10-12T01:03:18.958Z,996.45
2018-10-12T01:04:18.994Z,996.43
2018-10-12T01:05:18.937Z,996.41
2018-10-12T01:06:18.923Z,996.41
2018-10-12T01:07:18.913Z,996.35
2018-10-12T01:08:18.912Z,996.39
2018-10-12T01:09:18.891Z,996.41
2018-10-12T01:10:18.918Z,996.43
2018-10-12T01:11:18.876Z,996.37
2018-10-12T01:12:18.929Z,996.35
2018-10-12T01:13:18.847Z,996.31
2018-10-12T01:14:18.845Z,996.28
2018-10-12T01:15:18.827Z,996.36
2018-10-12T01:16:18.853Z,996.31
2018-10-12T01:17:18.804Z,996.30
2018-10-12T01:18:18.793Z,996.35
2018-10-12T01:19:18.780Z,996.28
2018-10-12T01:20:18.781Z,996.27
2018-10-12T01:21:18.768Z,996.31
2018-10-12T01:22:18.789Z,996.24
2018-10-12T01:23:18.737Z,996.28
2018-10-12T01:24:18.724Z,996.34
2018-10-12T01:25:18.712Z,996.31
2018-10-12T01:26:18.701Z,996.35
2018-10-12T01:27:18.705Z,996.38
2018-10-12T01:28:18.755Z,996.34
2018-10-12T01:29:18.683Z,996.38
2018-10-12T01:30:18.661Z,996.36
2018-10-12T01:31:18.649Z,996.35
2018-10-12T01:32:18.637Z,996.43
2018-10-12T01:33:18.623Z,996.33
2018-10-12T01:34:18.663Z,996.31
2018-10-12T01:35:18.648Z,996.34
2018-10-12T01:36:18.590Z,996.32
2018-10-12T01:37:18.581Z,996.39
2018-10-12T01:38:18.580Z,996.31
2018-10-12T01:39:18.563Z,996.38
2018-10-12T01:40:18.583Z,996.36
2018-10-12T01:41:18.551Z,996.35
2018-10-12T01:42:18.522Z,996.36
2018-10-12T01:43:18.515Z,996.36
2018-10-12T01:44:18.503Z,996.43
2018-10-12T01:45:18.498Z,996.44
2018-10-12T01:46:18.519Z,996.39
2018-10-12T01:47:18.473Z,996.43
2018-10-12T01:48:18.460Z,996.46
2018-10-12T01:49:18.448Z,996.41
2018-10-12T01:50:18.434Z,996.43
2018-10-12T01:51:18.423Z,996.51
2018-10-12T01:52:18.447Z,996.42
2018-10-12T01:53:18.416Z,996.45
2018-10-12T01:54:18.391Z,996.49
2018-10-12T01:55:18.392Z,996.44
2018-10-12T01:56:18.368Z,996.46
2018-10-12T01:57:18.358Z,996.44
2018-10-12T01:58:18.381Z,996.45
2018-10-12T01:59:18.348Z,996.48
2018-10-12T02:00:18.340Z,996.51
2018-10-12T02:01:18.311Z,996.48
2018-10-12T02:02:18.304Z,996.44
2018-10-12T02:03:18.294Z,996.45
2018-10-12T02:04:18.330Z,996.46
2018-10-12T02:05:18.271Z,996.51
2018-10-12T02:06:18.269Z,996.57
2018-10-12T02:07:18.246Z,996.54
2018-10-12T02:08:18.237Z,996.59
2018-10-12T02:09:18.223Z,996.62
2018-10-12T02:10:18.376Z,996.57
2018-10-12T02:11:18.211Z,996.65
2018-10-12T02:12:18.215Z,996.63
2018-10-12T02:13:18.183Z,996.66
2018-10-12T02:14:18.173Z,996.66
2018-10-12T02:15:18.162Z,996.61
2018-10-12T02:16:18.302Z,996.63
2018-10-12T02:17:18.139Z,996.63
2018-10-12T02:18:18.142Z,996.62
2018-10-12T02:19:18.114Z,996.66
2018-10-12T02:20:18.103Z,996.69
2018-10-12T02:21:18.094Z,996.68
2018-10-12T02:22:18.120Z,996.72
2018-10-12T02:23:18.077Z,996.72
2018-10-12T02:24:18.072Z,996.70
2018-10-12T02:25:18.051Z,996.67
2018-10-12T02:26:18.035Z,996.61
2018-10-12T02:27:18.034Z,996.67
2018-10-12T02:28:18.064Z,996.69
2018-10-12T02:29:18.004Z,996.71
2018-10-12T02:30:18.013Z,996.70
2018-10-12T02:31:17.982Z,996.75
2018-10-12T02:32:17.971Z,996.73
2018-10-12T02:33:17.959Z,996.81
2018-10-12T02:34:17.985Z,996.78
2018-10-12T02:35:17.936Z,996.81
2018-10-12T02:36:17.935Z,996.81
2018-10-12T02:37:17.915Z,996.79
2018-10-12T02:38:17.904Z,996.78
2018-10-12T02:39:17.891Z,996.83
2018-10-12T02:40:17.918Z,996.85
2018-10-12T02:41:17.869Z,996.90
2018-10-12T02:42:17.869Z,996.92
2018-10-12T02:43:17.848Z,996.97
2018-10-12T02:44:17.836Z,996.97
2018-10-12T02:45:17.826Z,996.95
2018-10-12T02:46:17.854Z,996.98
2018-10-12T02:47:17.804Z,996.99
2018-10-12T02:48:17.800Z,997.05
2018-10-12T02:49:17.797Z,997.03
2018-10-12T02:50:17.775Z,997.00
2018-10-12T02:51:17.765Z,997.06
2018-10-12T02:52:17.795Z,997.06
2018-10-12T02:53:17.738Z,997.18
2018-10-12T02:54:17.728Z,997.18
2018-10-12T02:55:17.725Z,997.23
2018-10-12T02:56:17.717Z,997.26
2018-10-12T02:57:17.693Z,997.27
2018-10-12T02:58:17.730Z,997.29
2018-10-12T02:59:17.670Z,997.22
2018-10-12T03:00:17.657Z,997.16
2018-10-12T03:01:17.651Z,997.19
2018-10-12T03:02:17.653Z,997.20
2018-10-12T03:03:17.624Z,997.18
2018-10-12T03:04:17.661Z,997.25
2018-10-12T03:05:17.608Z,997.26
2018-10-12T03:06:17.596Z,997.31
2018-10-12T03:07:17.581Z,997.36
2018-10-12T03:08:17.592Z,997.37
2018-10-12T03:09:17.563Z,997.33
2018-10-12T03:10:17.596Z,997.36
2018-10-12T03:11:17.542Z,997.37
2018-10-12T03:12:17.529Z,997.36
2018-10-12T03:13:17.526Z,997.41
2018-10-12T03:14:17.529Z,997.42
2018-10-12T03:15:17.491Z,997.41
2018-10-12T03:16:17.519Z,997.38
2018-10-12T03:17:17.473Z,997.36
2018-10-12T03:18:17.459Z,997.43
2018-10-12T03:19:17.450Z,997.39
2018-10-12T03:20:17.444Z,997.40
2018-10-12T03:21:17.490Z,997.43
2018-10-12T03:22:17.453Z,997.37
2018-10-12T03:23:17.404Z,997.35
2018-10-12T03:24:17.392Z,997.35
2018-10-12T03:25:17.386Z,997.35
2018-10-12T03:26:17.370Z,997.37
2018-10-12T03:27:17.367Z,997.40
2018-10-12T03:28:17.383Z,997.46
2018-10-12T03:29:17.341Z,997.40
2018-10-12T03:30:17.329Z,997.48
2018-10-12T03:31:17.314Z,997.52
2018-10-12T03:32:17.303Z,997.52
2018-10-12T03:33:17.301Z,997.53
2018-10-12T03:34:17.320Z,997.58
2018-10-12T03:35:17.271Z,997.54
2018-10-12T03:36:17.263Z,997.65
2018-10-12T03:37:17.415Z,997.72
2018-10-12T03:38:17.236Z,997.73
2018-10-12T03:39:17.242Z,997.72
2018-10-12T03:40:17.249Z,997.74
2018-10-12T03:41:17.214Z,997.76
2018-10-12T03:42:17.196Z,997.73
2018-10-12T03:43:17.185Z,997.76
2018-10-12T03:44:17.173Z,997.75
2018-10-12T03:45:17.169Z,997.75
2018-10-12T03:46:17.191Z,997.77
2018-10-12T03:47:17.213Z,997.74
2018-10-12T03:48:17.149Z,997.78
2018-10-12T03:49:17.127Z,997.78
2018-10-12T03:50:17.134Z,997.78
2018-10-12T03:51:17.096Z,997.79
2018-10-12T03:52:17.133Z,997.84
2018-10-12T03:53:17.077Z,997.89
2018-10-12T03:54:17.063Z,997.86
2018-10-12T03:55:17.065Z,997.82
2018-10-12T03:56:17.039Z,997.83
2018-10-12T03:57:17.029Z,997.82
2018-10-12T03:58:17.056Z,997.84
2018-10-12T03:59:17.006Z,997.81
2018-10-12T04:00:17.005Z,997.88
2018-10-12T04:01:16.980Z,997.93
2018-10-12T04:02:16.971Z,997.90
2018-10-12T04:03:16.974Z,997.86
2018-10-12T04:04:16.998Z,997.84
2018-10-12T04:05:16.938Z,997.87
2018-10-12T04:06:16.927Z,997.80
2018-10-12T04:07:16.921Z,997.75
2018-10-12T04:08:16.908Z,997.81
2018-10-12T04:09:16.901Z,997.83
2018-10-12T04:10:16.921Z,997.83
2018-10-12T04:11:16.871Z,997.85
2018-10-12T04:12:16.865Z,997.77
2018-10-12T04:13:16.855Z,997.83
2018-10-12T04:14:16.838Z,997.84
2018-10-12T04:15:16.832Z,997.89
2018-10-12T04:16:16.858Z,997.95
2018-10-12T04:17:16.809Z,997.94
2018-10-12T04:18:16.793Z,997.97
2018-10-12T04:19:16.823Z,998.00
2018-10-12T04:20:16.771Z,997.99
2018-10-12T04:21:16.766Z,998.04
2018-10-12T04:22:16.796Z,998.02
2018-10-12T04:23:16.736Z,998.04
2018-10-12T04:24:16.726Z,998.04
2018-10-12T04:25:16.715Z,997.99
2018-10-12T04:26:16.706Z,998.02
2018-10-12T04:27:16.747Z,998.02
2018-10-12T04:28:16.729Z,998.05
2018-10-12T04:29:16.679Z,998.07
2018-10-12T04:30:16.715Z,998.12
2018-10-12T04:31:16.652Z,998.08
2018-10-12T04:32:16.640Z,998.11
2018-10-12T04:33:16.632Z,998.16
2018-10-12T04:34:16.662Z,998.13
2018-10-12T04:35:16.646Z,998.17
2018-10-12T04:36:16.595Z,998.13
2018-10-12T04:37:16.612Z,998.16
2018-10-12T04:38:16.592Z,998.17
2018-10-12T04:39:16.561Z,998.15
2018-10-12T04:40:16.608Z,998.16
2018-10-12T04:41:16.542Z,998.10
2018-10-12T04:42:16.539Z,998.09
2018-10-12T04:43:16.541Z,998.08
2018-10-12T04:44:16.516Z,998.08
2018-10-12T04:45:16.494Z,998.08
2018-10-12T04:46:16.582Z,998.09
2018-10-12T04:47:16.626Z,998.11
2018-10-12T04:48:16.481Z,998.10
2018-10-12T04:49:16.468Z,998.13
2018-10-12T04:50:16.448Z,998.21
2018-10-12T04:51:16.439Z,998.20
2018-10-12T04:52:16.501Z,998.23
2018-10-12T04:53:16.411Z,998.29
2018-10-12T04:54:16.407Z,998.36
2018-10-12T04:55:16.440Z,998.42
2018-10-12T04:56:16.386Z,998.39
2018-10-12T04:57:16.372Z,998.38
2018-10-12T04:58:16.401Z,998.42
2018-10-12T04:59:16.348Z,998.42
2018-10-12T05:00:16.341Z,998.45
2018-10-12T05:01:16.394Z,998.45
2018-10-12T05:02:16.312Z,998.50
2018-10-12T05:03:16.297Z,998.50
2018-10-12T05:04:16.340Z,998.49
2018-10-12T05:05:16.277Z,998.52
2018-10-12T05:06:16.284Z,998.53
2018-10-12T05:07:16.257Z,998.56
2018-10-12T05:08:16.254Z,998.53
2018-10-12T05:09:16.236Z,998.54
2018-10-12T05:10:16.255Z,998.54
2018-10-12T05:11:16.212Z,998.57
2018-10-12T05:12:16.198Z,998.55
2018-10-12T05:13:16.191Z,998.62
2018-10-12T05:14:16.176Z,998.59
2018-10-12T05:15:16.184Z,998.59
2018-10-12T05:16:16.193Z,998.60
2018-10-12T05:17:16.142Z,998.68
2018-10-12T05:18:16.132Z,998.67
2018-10-12T05:19:16.126Z,998.67
2018-10-12T05:20:16.109Z,998.63
2018-10-12T05:21:16.112Z,998.65
2018-10-12T05:22:16.140Z,998.62
2018-10-12T05:23:16.082Z,998.58
2018-10-12T05:24:16.066Z,998.58
2018-10-12T05:25:16.057Z,998.57
2018-10-12T05:26:16.042Z,998.63
2018-10-12T05:27:16.049Z,998.60
2018-10-12T05:28:16.065Z,998.70
2018-10-12T05:29:16.009Z,998.72
2018-10-12T05:30:16.032Z,998.72
2018-10-12T05:31:15.984Z,998.72
2018-10-12T05:32:15.979Z,998.71
2018-10-12T05:33:15.962Z,998.69
2018-10-12T05:34:16.013Z,998.70
2018-10-12T05:35:15.939Z,998.74
2018-10-12T05:36:15.939Z,998.77
2018-10-12T05:37:15.919Z,998.78
2018-10-12T05:38:15.905Z,998.82
2018-10-12T05:39:15.903Z,998.83
2018-10-12T05:40:15.925Z,998.83
2018-10-12T05:41:15.888Z,998.86
2018-10-12T05:42:15.862Z,998.92
2018-10-12T05:43:15.906Z,998.92
2018-10-12T05:44:15.842Z,998.94
2018-10-12T05:45:15.828Z,998.96
2018-10-12T05:46:15.856Z,998.99
2018-10-12T05:47:15.826Z,998.96
2018-10-12T05:48:15.800Z,998.93
2018-10-12T05:49:15.785Z,998.95
2018-10-12T05:50:15.782Z,998.93
2018-10-12T05:51:15.764Z,998.97
2018-10-12T05:52:15.790Z,998.90
2018-10-12T05:53:15.798Z,998.94
2018-10-12T05:54:15.726Z,998.90
2018-10-12T05:55:15.719Z,998.87
2018-10-12T05:56:15.707Z,998.90
2018-10-12T05:57:15.699Z,998.92
2018-10-12T05:58:15.728Z,998.91
2018-10-12T05:59:15.675Z,998.90
2018-10-12T06:00:15.664Z,998.93
2018-10-12T06:01:15.736Z,998.97
2018-10-12T06:02:15.653Z,998.98
2018-10-12T06:03:15.631Z,998.95
2018-10-12T06:04:15.667Z,998.94
2018-10-12T06:05:15.610Z,998.98
2018-10-12T06:06:15.590Z,998.93
2018-10-12T06:07:15.590Z,999.02
2018-10-12T06:08:15.582Z,999.01
2018-10-12T06:09:15.556Z,999.01
2018-10-12T06:10:15.603Z,999.06
2018-10-12T06:11:15.605Z,999.11
2018-10-12T06:12:15.535Z,999.09
2018-10-12T06:13:15.517Z,999.10
2018-10-12T06:14:15.520Z,999.09
2018-10-12T06:15:15.494Z,999.13
2018-10-12T06:16:15.527Z,999.14
2018-10-12T06:17:15.475Z,999.16
2018-10-12T06:18:15.461Z,999.16
2018-10-12T06:19:15.456Z,999.22
2018-10-12T06:20:15.437Z,999.27
2018-10-12T06:21:15.439Z,999.25
2018-10-12T06:22:15.466Z,999.28
2018-10-12T06:23:15.401Z,999.34
2018-10-12T06:24:15.392Z,999.36
2018-10-12T06:25:15.381Z,999.42
2018-10-12T06:26:15.373Z,999.41
2018-10-12T06:27:15.381Z,999.41
2018-10-12T06:28:15.383Z,999.40
2018-10-12T06:29:15.400Z,999.47
2018-10-12T06:30:15.363Z,999.47
2018-10-12T06:31:15.353Z,999.52
2018-10-12T06:32:15.340Z,999.57
2018-10-12T06:33:15.465Z,999.62
2018-10-12T06:34:15.312Z,999.63
2018-10-12T06:35:15.273Z,999.69
2018-10-12T06:36:15.261Z,999.70
2018-10-12T06:37:15.261Z,999.62
2018-10-12T06:38:15.236Z,999.64
2018-10-12T06:39:15.231Z,999.64
2018-10-12T06:40:15.251Z,999.60
2018-10-12T06:41:15.334Z,999.58
2018-10-12T06:42:15.195Z,999.59
2018-10-12T06:43:15.201Z,999.65
2018-10-12T06:44:15.169Z,999.65
2018-10-12T06:45:15.159Z,999.67
2018-10-12T06:46:15.376Z,999.67
2018-10-12T06:47:15.143Z,999.71
2018-10-12T06:48:15.123Z,999.71
2018-10-12T06:49:15.115Z,999.73
2018-10-12T06:50:15.104Z,999.75
2018-10-12T06:51:15.090Z,999.79
2018-10-12T06:52:15.173Z,999.89
2018-10-12T06:53:15.069Z,999.83
2018-10-12T06:54:15.064Z,999.77
2018-10-12T06:55:15.048Z,999.84
2018-10-12T06:56:15.065Z,999.88
2018-10-12T06:57:15.024Z,999.83
2018-10-12T06:58:15.068Z,999.87
2018-10-12T06:59:15.005Z,999.84
2018-10-12T07:00:14.996Z,999.87
2018-10-12T07:01:14.984Z,999.91
2018-10-12T07:02:14.968Z,999.96
2018-10-12T07:03:14.954Z,999.99
2018-10-12T07:04:14.983Z,1000.03
2018-10-12T07:05:14.959Z,1000.02
2018-10-12T07:06:14.929Z,1000.03
2018-10-12T07:07:14.914Z,1000.05
2018-10-12T07:08:14.900Z,999.94
2018-10-12T07:09:14.889Z,999.96
2018-10-12T07:10:14.913Z,999.95
2018-10-12T07:11:14.891Z,999.94
2018-10-12T07:12:14.875Z,1000.03
2018-10-12T07:13:14.847Z,1000.04
2018-10-12T07:14:14.839Z,1000.09
2018-10-12T07:15:14.832Z,1000.10
2018-10-12T07:16:14.867Z,1000.12
2018-10-12T07:17:14.821Z,1000.14
2018-10-12T07:18:14.794Z,1000.13
2018-10-12T07:19:14.781Z,1000.11
2018-10-12T07:20:14.776Z,1000.12
2018-10-12T07:21:14.759Z,1000.20
2018-10-12T07:22:14.797Z,1000.19
2018-10-12T07:23:14.755Z,1000.22
2018-10-12T07:24:14.724Z,1000.24
2018-10-12T07:25:14.712Z,1000.32
2018-10-12T07:26:14.699Z,1000.31
2018-10-12T07:27:14.688Z,1000.34
2018-10-12T07:28:14.812Z,1000.41
2018-10-12T07:29:14.674Z,1000.33
2018-10-12T07:30:14.676Z,1000.34
2018-10-12T07:31:14.648Z,1000.36
2018-10-12T07:32:14.638Z,1000.42
2018-10-12T07:33:14.628Z,1000.43
2018-10-12T07:34:14.701Z,1000.42
2018-10-12T07:35:14.597Z,1000.44
2018-10-12T07:36:14.614Z,1000.51
2018-10-12T07:37:14.722Z,1000.50
2018-10-12T07:38:14.867Z,1000.48
2018-10-12T07:39:14.850Z,1000.51
2018-10-12T07:40:14.579Z,1000.50
2018-10-12T07:41:14.559Z,1000.53
2018-10-12T07:42:14.543Z,1000.50
2018-10-12T07:43:14.520Z,1000.52
2018-10-12T07:44:22.051Z,1000.52
2018-10-12T07:45:24.050Z,1000.52
2018-10-12T07:46:23.051Z,1000.53
2018-10-12T07:47:22.079Z,1000.55
2018-10-12T07:48:14.489Z,1000.60
2018-10-12T07:49:14.440Z,1000.62
2018-10-12T07:50:14.427Z,1000.58
2018-10-12T07:51:14.458Z,1000.54
2018-10-12T07:52:14.405Z,1000.57
2018-10-12T07:53:14.450Z,1000.59
2018-10-12T07:54:14.385Z,1000.60
2018-10-12T07:55:14.387Z,1000.59
2018-10-12T07:56:14.364Z,1000.62
2018-10-12T07:57:14.390Z,1000.62
2018-10-12T07:58:14.361Z,1000.62
2018-10-12T07:59:14.337Z,1000.63
2018-10-12T08:00:14.429Z,1000.63
2018-10-12T08:01:14.307Z,1000.63
2018-10-12T08:02:14.297Z,1000.59
2018-10-12T08:03:14.329Z,1000.61
2018-10-12T08:04:14.271Z,1000.57
2018-10-12T08:05:14.276Z,1000.54
2018-10-12T08:06:14.283Z,1000.53
2018-10-12T08:07:14.254Z,1000.53
2018-10-12T08:08:14.231Z,1000.55
2018-10-12T08:09:14.263Z,1000.56
2018-10-12T08:10:14.208Z,1000.59
2018-10-12T08:11:14.200Z,1000.60
2018-10-12T08:12:14.200Z,1000.58
2018-10-12T08:13:14.177Z,1000.59
2018-10-12T08:14:14.212Z,1000.58
2018-10-12T08:15:14.196Z,1000.59
2018-10-12T08:16:14.144Z,1000.57
2018-10-12T08:17:14.131Z,1000.59
2018-10-12T08:18:14.124Z,1000.65
2018-10-12T08:19:14.107Z,1000.66
2018-10-12T08:20:14.173Z,1000.64
2018-10-12T08:21:14.123Z,1000.72
2018-10-12T08:22:14.075Z,1000.69
2018-10-12T08:23:14.061Z,1000.71
2018-10-12T08:24:14.056Z,1000.71
2018-10-12T08:25:14.041Z,1000.72
2018-10-12T08:26:14.039Z,1000.73
2018-10-12T08:27:14.068Z,1000.72
2018-10-12T08:28:14.010Z,1000.75
2018-10-12T08:29:13.996Z,1000.78
2018-10-12T08:30:13.995Z,1000.74
2018-10-12T08:31:13.979Z,1000.79
2018-10-12T08:32:13.975Z,1000.79
2018-10-12T08:33:14.002Z,1000.75
2018-10-12T08:34:13.940Z,1000.81
2018-10-12T08:35:13.933Z,1000.82
2018-10-12T08:36:13.973Z,1000.84
2018-10-12T08:37:13.992Z,1000.83
2018-10-12T08:38:13.901Z,1000.82
2018-10-12T08:39:13.930Z,1000.86
2018-10-12T08:40:13.880Z,1000.83
2018-10-12T08:41:13.870Z,1000.84
2018-10-12T08:42:13.858Z,1000.85
2018-10-12T08:43:13.854Z,1000.90
2018-10-12T08:44:13.873Z,1000.92
2018-10-12T08:45:13.863Z,1000.92
2018-10-12T08:46:13.811Z,1000.92
2018-10-12T08:47:13.841Z,1000.94
2018-10-12T08:48:13.791Z,1000.84
2018-10-12T08:49:13.779Z,1000.91
2018-10-12T08:50:13.798Z,1000.94
2018-10-12T08:51:13.795Z,1000.92
2018-10-12T08:52:13.750Z,1000.93
2018-10-12T08:53:13.739Z,1000.97
2018-10-12T08:54:13.731Z,1000.94
2018-10-12T08:55:13.716Z,1000.95
2018-10-12T08:56:13.726Z,1000.99
2018-10-12T08:57:13.731Z,1000.95
2018-10-12T08:58:13.681Z,1000.97
2018-10-12T08:59:13.669Z,1000.91
2018-10-12T09:00:13.659Z,1000.94
2018-10-12T09:01:13.651Z,1000.99
2018-10-12T09:02:13.657Z,1000.95
2018-10-12T09:03:13.685Z,1001.00
2018-10-12T09:04:13.624Z,1001.01
2018-10-12T09:05:13.604Z,1000.98
2018-10-12T09:06:13.593Z,1001.08
2018-10-12T09:07:13.581Z,1001.12
2018-10-12T09:08:13.581Z,1001.12
2018-10-12T09:09:13.615Z,1001.06
2018-10-12T09:10:13.583Z,1001.04
2018-10-12T09:11:13.534Z,1001.08
2018-10-12T09:12:13.526Z,1001.06
2018-10-12T09:13:13.518Z,1000.97
2018-10-12T09:14:13.497Z,1001.04
2018-10-12T09:15:13.554Z,1001.05
2018-10-12T09:16:13.499Z,1001.08
2018-10-12T09:17:13.484Z,1001.11
2018-10-12T09:18:13.464Z,1001.09
2018-10-12T09:19:13.445Z,1001.10
2018-10-12T09:20:13.478Z,1001.05
2018-10-12T09:21:13.456Z,1001.10
2018-10-12T09:22:13.412Z,1001.12
2018-10-12T09:23:13.427Z,1001.09
2018-10-12T09:24:13.391Z,1001.14
2018-10-12T09:25:13.373Z,1001.13
2018-10-12T09:26:13.362Z,1001.10
2018-10-12T09:27:13.473Z,1001.07
2018-10-12T09:28:13.346Z,1001.01
2018-10-12T09:29:13.336Z,1001.03
2018-10-12T09:30:13.400Z,1001.02
2018-10-12T09:31:13.306Z,1001.00
2018-10-12T09:32:13.296Z,1000.97
2018-10-12T09:33:13.319Z,1000.98
2018-10-12T09:34:13.282Z,1000.98
2018-10-12T09:35:13.263Z,1000.97
2018-10-12T09:36:13.274Z,1001.02
2018-10-12T09:37:13.280Z,1000.96
2018-10-12T09:38:13.229Z,1000.97
2018-10-12T09:39:13.264Z,1001.01
2018-10-12T09:40:13.202Z,1000.91
2018-10-12T09:41:13.195Z,1000.92
2018-10-12T09:42:13.203Z,1000.91
2018-10-12T09:43:13.184Z,1000.93
2018-10-12T09:44:13.174Z,1000.95
2018-10-12T09:45:13.188Z,1000.98
2018-10-12T09:46:13.138Z,1000.99
2018-10-12T09:47:13.125Z,1001.03
2018-10-12T09:48:13.122Z,1000.99
2018-10-12T09:49:13.103Z,1000.97
2018-10-12T09:50:13.133Z,1000.96
2018-10-12T09:51:13.132Z,1000.90
2018-10-12T09:52:13.074Z,1000.95
2018-10-12T09:53:13.060Z,1000.93
2018-10-12T09:54:13.062Z,1000.97
2018-10-12T09:55:13.038Z,1000.99
2018-10-12T09:56:13.032Z,1000.91
2018-10-12T09:57:13.052Z,1000.94
2018-10-12T09:58:13.006Z,1000.93
2018-10-12T09:59:12.996Z,1000.91
2018-10-12T10:00:13.000Z,1000.93
2018-10-12T10:01:12.979Z,1000.91
2018-10-12T10:02:12.968Z,1000.82
2018-10-12T10:03:12.984Z,1000.83
2018-10-12T10:04:12.944Z,1000.90
2018-10-12T10:05:12.929Z,1000.90
2018-10-12T10:06:12.934Z,1000.88
2018-10-12T10:07:12.905Z,1000.91
2018-10-12T10:08:13.105Z,1000.90
2018-10-12T10:09:12.917Z,1000.95
2018-10-12T10:10:12.875Z,1000.85
2018-10-12T10:11:12.871Z,1000.85
2018-10-12T10:12:12.872Z,1000.92
2018-10-12T10:13:12.841Z,1000.92
2018-10-12T10:14:12.827Z,1000.87
2018-10-12T10:15:12.858Z,1000.84
2018-10-12T10:16:12.802Z,1000.88
2018-10-12T10:17:12.789Z,1000.80
2018-10-12T10:18:12.809Z,1000.77
2018-10-12T10:19:12.827Z,1000.72
2018-10-12T10:20:12.753Z,1000.72
2018-10-12T10:21:12.787Z,1000.70
2018-10-12T10:22:12.738Z,1000.77
2018-10-12T10:23:12.719Z,1000.69
2018-10-12T10:24:12.784Z,1000.73
2018-10-12T10:25:12.835Z,1000.79
2018-10-12T10:26:12.689Z,1000.76
2018-10-12T10:27:12.710Z,1000.75
2018-10-12T10:28:12.669Z,1000.68
2018-10-12T10:29:12.694Z,1000.75
2018-10-12T10:30:12.667Z,1000.69
2018-10-12T10:31:12.628Z,1000.64
2018-10-12T10:32:12.630Z,1000.59
2018-10-12T10:33:12.650Z,1000.65
2018-10-12T10:34:12.595Z,1000.61
2018-10-12T10:35:12.584Z,1000.62
2018-10-12T10:36:12.580Z,1000.53
2018-10-12T10:37:12.560Z,1000.52
2018-10-12T10:38:12.552Z,1000.52
2018-10-12T10:39:12.664Z,1000.51
2018-10-12T10:40:12.529Z,1000.54
2018-10-12T10:41:12.516Z,1000.48
2018-10-12T10:42:12.519Z,1000.49
2018-10-12T10:43:12.494Z,1000.52
2018-10-12T10:44:12.485Z,1000.55
2018-10-12T10:45:12.509Z,1000.55
2018-10-12T10:46:12.487Z,1000.50
2018-10-12T10:47:12.446Z,1000.47
2018-10-12T10:48:12.462Z,1000.53
2018-10-12T10:49:12.432Z,1000.49
2018-10-12T10:50:12.419Z,1000.47
2018-10-12T10:51:12.445Z,1000.49
2018-10-12T10:52:12.389Z,1000.44
2018-10-12T10:53:12.380Z,1000.41
2018-10-12T10:54:12.364Z,1000.45
2018-10-12T10:55:12.376Z,1000.44
2018-10-12T10:56:12.343Z,1000.39
2018-10-12T10:57:12.374Z,1000.43
2018-10-12T10:58:12.331Z,1000.37
2018-10-12T10:59:12.311Z,1000.43
2018-10-12T11:00:12.302Z,1000.39
2018-10-12T11:01:12.287Z,1000.45
2018-10-12T11:02:12.311Z,1000.40
2018-10-12T11:03:12.313Z,1000.40
2018-10-12T11:04:12.256Z,1000.37
2018-10-12T11:05:12.251Z,1000.42
2018-10-12T11:06:12.282Z,1000.38
2018-10-12T11:07:12.229Z,1000.34
2018-10-12T11:08:12.209Z,1000.35
2018-10-12T11:09:12.260Z,1000.38
2018-10-12T11:10:12.187Z,1000.34
2018-10-12T11:11:12.178Z,1000.32
2018-10-12T11:12:12.236Z,1000.33
2018-10-12T11:13:12.160Z,1000.33
2018-10-12T11:14:12.143Z,1000.34
2018-10-12T11:15:12.196Z,1000.32
2018-10-12T11:16:12.120Z,1000.33
2018-10-12T11:17:12.117Z,1000.33
2018-10-12T11:18:12.101Z,1000.36
2018-10-12T11:19:12.089Z,1000.33
2018-10-12T11:20:12.078Z,1000.41
2018-10-12T11:21:12.143Z,1000.36
2018-10-12T11:22:12.057Z,1000.41
2018-10-12T11:23:12.047Z,1000.41
2018-10-12T11:24:12.038Z,1000.41
2018-10-12T11:25:12.023Z,1000.42
2018-10-12T11:26:12.078Z,1000.42
2018-10-12T11:27:12.050Z,1000.41
2018-10-12T11:28:11.997Z,1000.41
2018-10-12T11:29:11.981Z,1000.35
2018-10-12T11:30:11.968Z,1000.37
2018-10-12T11:31:11.956Z,1000.42
2018-10-12T11:32:11.948Z,1000.41
2018-10-12T11:33:12.015Z,1000.44
2018-10-12T11:34:11.932Z,1000.41
2018-10-12T11:35:11.936Z,1000.43
2018-10-12T11:36:11.952Z,1000.45
2018-10-12T11:37:11.905Z,1000.38
2018-10-12T11:38:11.899Z,1000.37
2018-10-12T11:39:11.920Z,1000.39
2018-10-12T11:40:11.861Z,1000.42
2018-10-12T11:41:11.876Z,1000.42
2018-10-12T11:42:12.670Z,1000.42
2018-10-12T11:43:11.831Z,1000.46
2018-10-12T11:44:11.835Z,1000.46
2018-10-12T11:45:11.874Z,1000.46
2018-10-12T11:46:11.797Z,1000.51
2018-10-12T11:47:11.787Z,1000.45
2018-10-12T11:48:11.774Z,1000.48
2018-10-12T11:49:11.786Z,1000.46
2018-10-12T11:50:11.750Z,1000.44
2018-10-12T11:51:11.777Z,1000.48
2018-10-12T11:52:11.823Z,1000.52
2018-10-12T11:53:11.717Z,1000.55
2018-10-12T11:54:11.709Z,1000.50
2018-10-12T11:55:11.710Z,1000.54
2018-10-12T11:56:11.682Z,1000.52
2018-10-12T11:57:11.709Z,1000.51
2018-10-12T11:58:11.664Z,1000.57
2018-10-12T11:59:11.654Z,1000.54
2018-10-12T12:00:11.649Z,1000.55
2018-10-12T12:01:11.825Z,1000.50
2018-10-12T12:02:11.645Z,1000.59
2018-10-12T12:03:11.680Z,1000.54
2018-10-12T12:04:11.611Z,1000.53
2018-10-12T12:05:11.585Z,1000.54
2018-10-12T12:06:11.575Z,1000.54
2018-10-12T12:07:11.620Z,1000.50
2018-10-12T12:08:11.565Z,1000.50
2018-10-12T12:09:11.598Z,1000.54
2018-10-12T12:10:11.534Z,1000.53
2018-10-12T12:11:11.521Z,1000.50
2018-10-12T12:12:11.521Z,1000.50
2018-10-12T12:13:11.500Z,1000.52
2018-10-12T12:14:11.494Z,1000.60
2018-10-12T12:15:11.514Z,1000.57
2018-10-12T12:16:11.471Z,1000.57
2018-10-12T12:17:11.460Z,1000.60
2018-10-12T12:18:11.460Z,1000.55